Time,TemperatureF,DewpointF,PressureIn,WindDirection,WindDirectionDegrees,WindSpeedMPH,WindSpeedGustMPH,Humidity,HourlyPrecipIn,Conditions,Clouds,dailyrainin,SoftwareType,DateUTC
2013-02-05 00:00:00,12.4,10.6,30.01,East,96,0.0,1.0,92,0.00,,,0.00,meteohub,2013-02-05 05:00:00,
2013-02-05 00:01:00,12.4,10.6,30.01,East,96,0.0,1.0,92,0.00,,,0.00,meteohub,2013-02-05 05:01:00,
2013-02-05 00:06:00,12.4,10.6,30.01,East,96,0.0,1.0,92,0.00,,,0.00,meteohub,2013-02-05 05:06:00,
2013-02-05 00:11:00,12.4,10.6,30.01,East,96,0.0,1.0,92,0.00,,,0.00,meteohub,2013-02-05 05:11:00,
2013-02-05 00:16:00,12.4,10.6,30.02,East,96,0.0,0.0,92,0.00,,,0.00,meteohub,2013-02-05 05:16:00,
2013-02-05 00:21:00,12.2,10.4,30.01,East,96,0.0,0.0,92,0.00,,,0.00,meteohub,2013-02-05 05:21:00,
2013-02-05 00:26:00,12.0,10.2,30.01,East,96,0.0,0.0,92,0.00,,,0.00,meteohub,2013-02-05 05:26:00,
2013-02-05 00:31:00,12.0,10.2,30.01,East,96,0.0,0.0,92,0.00,,,0.00,meteohub,2013-02-05 05:31:00,
2013-02-05 00:36:00,12.2,10.6,30.01,East,96,0.0,1.0,93,0.00,,,0.00,meteohub,2013-02-05 05:36:00,
2013-02-05 00:41:00,12.2,10.4,30.02,East,96,0.0,1.0,92,0.00,,,0.00,meteohub,2013-02-05 05:41:00,
2013-02-05 00:46:00,12.0,10.2,30.01,East,96,1.0,1.0,92,0.00,,,0.00,meteohub,2013-02-05 05:46:00,
2013-02-05 00:51:00,12.0,10.2,30.01,East,101,0.0,3.0,92,0.00,,,0.00,meteohub,2013-02-05 05:51:00,
2013-02-05 00:56:00,11.8,10.0,30.01,SW,224,0.0,3.0,92,0.00,,,0.00,meteohub,2013-02-05 05:56:00,
2013-02-05 01:01:00,11.7,9.9,30.01,SE,141,0.0,3.0,92,0.00,,,0.00,meteohub,2013-02-05 06:01:00,
2013-02-05 01:06:00,11.5,9.7,30.01,East,95,0.0,2.0,92,0.00,,,0.00,meteohub,2013-02-05 06:06:00,
2013-02-05 01:11:00,11.3,9.5,30.01,East,95,0.0,1.0,92,0.00,,,0.00,meteohub,2013-02-05 06:11:00,
2013-02-05 01:16:00,11.1,9.3,30.00,East,95,0.0,1.0,92,0.00,,,0.00,meteohub,2013-02-05 06:16:00,
2013-02-05 01:21:00,10.9,8.8,30.00,East,95,0.0,1.0,91,0.00,,,0.00,meteohub,2013-02-05 06:21:00,
2013-02-05 01:27:00,10.6,8.4,30.00,East,95,0.0,1.0,91,0.00,,,0.00,meteohub,2013-02-05 06:27:00,
2013-02-05 01:32:00,10.4,8.6,30.00,East,95,0.0,0.0,92,0.00,,,0.00,meteohub,2013-02-05 06:32:00,
2013-02-05 01:37:00,10.6,8.8,30.01,East,94,0.0,1.0,92,0.00,,,0.00,meteohub,2013-02-05 06:37:00,
2013-02-05 01:42:00,10.6,8.8,30.00,East,94,0.0,1.0,92,0.00,,,0.00,meteohub,2013-02-05 06:42:00,
2013-02-05 01:47:00,10.2,8.4,30.00,East,95,0.0,1.0,92,0.00,,,0.00,meteohub,2013-02-05 06:47:00,
2013-02-05 01:52:00,10.0,8.2,30.01,East,94,0.0,0.0,92,0.00,,,0.00,meteohub,2013-02-05 06:52:00,
2013-02-05 01:57:00,9.9,8.1,30.00,East,95,0.0,0.0,92,0.00,,,0.00,meteohub,2013-02-05 06:57:00,
2013-02-05 02:02:00,9.9,8.1,30.01,South,187,0.0,0.0,92,0.00,,,0.00,meteohub,2013-02-05 07:02:00,
2013-02-05 02:07:00,10.0,8.4,30.01,WSW,240,0.0,1.0,93,0.00,,,0.00,meteohub,2013-02-05 07:07:00,
2013-02-05 02:12:00,9.9,8.1,30.01,WSW,239,0.0,1.0,92,0.00,,,0.00,meteohub,2013-02-05 07:12:00,
2013-02-05 02:17:00,9.7,7.9,30.01,SW,236,0.0,1.0,92,0.00,,,0.00,meteohub,2013-02-05 07:17:00,
2013-02-05 02:22:00,9.7,7.9,30.01,SW,236,0.0,1.0,92,0.00,,,0.00,meteohub,2013-02-05 07:22:00,
2013-02-05 02:27:00,9.7,7.9,30.01,ESE,102,0.0,1.0,92,0.00,,,0.00,meteohub,2013-02-05 07:27:00,
2013-02-05 02:32:00,9.5,7.7,30.00,East,101,0.0,1.0,92,0.00,,,0.00,meteohub,2013-02-05 07:32:00,
2013-02-05 02:37:00,9.7,7.9,30.01,East,101,0.0,1.0,92,0.00,,,0.00,meteohub,2013-02-05 07:37:00,
2013-02-05 02:42:00,9.7,7.9,30.01,East,101,0.0,1.0,92,0.00,,,0.00,meteohub,2013-02-05 07:42:00,
2013-02-05 02:47:00,9.5,7.7,30.01,ESE,102,0.0,1.0,92,0.00,,,0.00,meteohub,2013-02-05 07:47:00,
2013-02-05 02:52:00,9.1,7.0,30.01,ESE,102,0.0,0.0,91,0.00,,,0.00,meteohub,2013-02-05 07:52:00,
2013-02-05 02:57:00,9.0,6.8,30.00,ESE,102,0.0,1.0,91,0.00,,,0.00,meteohub,2013-02-05 07:57:00,
2013-02-05 03:02:00,9.0,7.2,30.00,East,101,0.0,1.0,92,0.00,,,0.00,meteohub,2013-02-05 08:02:00,
2013-02-05 03:07:00,8.8,6.6,30.00,ESE,113,0.0,1.0,91,0.00,,,0.00,meteohub,2013-02-05 08:07:00,
2013-02-05 03:12:00,8.4,6.3,30.00,ESE,113,0.0,1.0,91,0.00,,,0.00,meteohub,2013-02-05 08:12:00,
2013-02-05 03:17:00,8.4,6.3,30.00,ESE,113,0.0,1.0,91,0.00,,,0.00,meteohub,2013-02-05 08:17:00,
2013-02-05 03:23:00,8.2,6.1,30.00,ESE,113,0.0,1.0,91,0.00,,,0.00,meteohub,2013-02-05 08:23:00,
2013-02-05 03:28:00,8.2,6.4,30.00,ESE,113,0.0,0.0,92,0.00,,,0.00,meteohub,2013-02-05 08:28:00,
2013-02-05 03:33:00,7.9,5.7,30.00,ESE,113,0.0,0.0,91,0.00,,,0.00,meteohub,2013-02-05 08:33:00,
2013-02-05 03:38:00,7.5,5.4,29.99,ESE,113,0.0,1.0,91,0.00,,,0.00,meteohub,2013-02-05 08:38:00,
2013-02-05 03:43:00,7.3,5.2,29.99,ESE,113,0.0,1.0,91,0.00,,,0.00,meteohub,2013-02-05 08:43:00,
2013-02-05 03:48:00,7.2,5.2,29.99,East,99,0.0,1.0,91,0.00,,,0.00,meteohub,2013-02-05 08:48:00,
2013-02-05 03:53:00,7.0,5.0,29.99,East,99,1.0,1.0,91,0.00,,,0.00,meteohub,2013-02-05 08:53:00,
2013-02-05 03:58:00,7.2,5.4,29.98,East,94,1.0,1.0,92,0.00,,,0.00,meteohub,2013-02-05 08:58:00,
2013-02-05 04:03:00,7.2,5.4,29.98,East,97,1.0,2.0,92,0.00,,,0.00,meteohub,2013-02-05 09:03:00,
2013-02-05 04:08:00,7.3,5.5,29.98,East,97,2.0,2.0,92,0.00,,,0.00,meteohub,2013-02-05 09:08:00,
2013-02-05 04:13:00,7.7,5.9,29.97,ESE,113,3.0,3.0,92,0.00,,,0.00,meteohub,2013-02-05 09:13:00,
2013-02-05 04:18:00,8.1,6.3,29.97,ESE,115,3.0,3.0,92,0.00,,,0.00,meteohub,2013-02-05 09:18:00,
2013-02-05 04:23:00,8.4,6.8,29.97,ESE,113,3.0,3.0,93,0.00,,,0.00,meteohub,2013-02-05 09:23:00,
2013-02-05 04:28:00,8.2,6.4,29.98,ESE,109,2.0,3.0,92,0.00,,,0.00,meteohub,2013-02-05 09:28:00,
2013-02-05 04:33:00,7.9,5.7,29.98,ESE,110,1.0,3.0,91,0.00,,,0.00,meteohub,2013-02-05 09:33:00,
2013-02-05 04:38:00,7.5,5.4,29.98,ESE,113,3.0,3.0,91,0.00,,,0.00,meteohub,2013-02-05 09:38:00,
2013-02-05 04:43:00,7.2,5.2,29.98,ESE,116,2.0,3.0,91,0.00,,,0.00,meteohub,2013-02-05 09:43:00,
2013-02-05 04:48:00,7.0,5.0,29.98,ESE,108,3.0,3.0,91,0.00,,,0.00,meteohub,2013-02-05 09:48:00,
2013-02-05 04:53:00,7.3,5.5,29.98,ESE,110,4.0,5.0,92,0.00,,,0.00,meteohub,2013-02-05 09:53:00,
2013-02-05 04:58:00,8.1,6.4,29.98,SE,130,4.0,5.0,93,0.00,,,0.00,meteohub,2013-02-05 09:58:00,
2013-02-05 05:04:00,8.8,7.2,29.98,SE,127,5.0,5.0,93,0.00,,,0.00,meteohub,2013-02-05 10:04:00,
2013-02-05 05:08:00,9.1,7.5,29.98,SE,127,5.0,5.0,93,0.00,,,0.00,meteohub,2013-02-05 10:08:00,
2013-02-05 05:14:00,9.5,7.9,29.99,SE,134,5.0,6.0,93,0.00,,,0.00,meteohub,2013-02-05 10:14:00,
2013-02-05 05:19:00,9.5,7.7,29.98,SE,128,5.0,6.0,92,0.00,,,0.00,meteohub,2013-02-05 10:19:00,
2013-02-05 05:24:00,9.1,7.3,29.98,ESE,122,4.0,6.0,92,0.00,,,0.00,meteohub,2013-02-05 10:24:00,
2013-02-05 05:29:00,9.1,7.3,29.98,SE,139,5.0,6.0,92,0.00,,,0.00,meteohub,2013-02-05 10:29:00,
2013-02-05 05:34:00,9.0,7.2,29.98,ESE,122,5.0,6.0,92,0.00,,,0.00,meteohub,2013-02-05 10:34:00,
2013-02-05 05:39:00,9.1,7.3,29.98,ESE,113,4.0,6.0,92,0.00,,,0.00,meteohub,2013-02-05 10:39:00,
2013-02-05 05:44:00,9.0,6.8,29.98,ESE,119,5.0,6.0,91,0.00,,,0.00,meteohub,2013-02-05 10:44:00,
2013-02-05 05:49:00,8.8,6.6,29.98,SE,130,4.0,6.0,91,0.00,,,0.00,meteohub,2013-02-05 10:49:00,
2013-02-05 05:54:00,9.1,7.3,29.98,SE,125,6.0,6.0,92,0.00,,,0.00,meteohub,2013-02-05 10:54:00,
2013-02-05 05:59:00,9.7,7.9,29.98,SE,131,5.0,6.0,92,0.00,,,0.00,meteohub,2013-02-05 10:59:00,
2013-02-05 06:04:00,9.9,8.1,29.99,SE,131,6.0,6.0,92,0.00,,,0.00,meteohub,2013-02-05 11:04:00,
2013-02-05 06:09:00,10.2,8.6,29.99,SE,132,6.0,7.0,93,0.00,,,0.00,meteohub,2013-02-05 11:09:00,
2013-02-05 06:14:00,10.6,8.8,29.99,SE,141,6.0,7.0,92,0.00,,,0.00,meteohub,2013-02-05 11:14:00,
2013-02-05 06:19:00,10.0,7.9,29.99,SE,129,6.0,7.0,91,0.00,,,0.00,meteohub,2013-02-05 11:19:00,
2013-02-05 06:24:00,10.0,8.2,29.98,SE,136,7.0,7.0,92,0.00,,,0.00,meteohub,2013-02-05 11:24:00,
2013-02-05 06:29:00,10.0,8.2,29.98,SE,127,8.0,8.0,92,0.00,,,0.00,meteohub,2013-02-05 11:29:00,
2013-02-05 06:34:00,10.2,8.4,29.98,SE,141,7.0,7.0,92,0.00,,,0.00,meteohub,2013-02-05 11:34:00,
2013-02-05 06:40:00,10.2,8.4,29.98,SE,131,7.0,9.0,92,0.00,,,0.00,meteohub,2013-02-05 11:40:00,
2013-02-05 06:44:00,10.0,8.2,29.98,ESE,118,6.0,9.0,92,0.00,,,0.00,meteohub,2013-02-05 11:44:00,
2013-02-05 06:50:00,10.2,8.4,29.98,ESE,115,4.0,9.0,92,0.00,,,0.00,meteohub,2013-02-05 11:50:00,
2013-02-05 06:55:00,10.2,8.4,29.98,SE,124,4.0,9.0,92,0.00,,,0.00,meteohub,2013-02-05 11:55:00,
2013-02-05 07:00:00,10.2,8.4,29.97,SE,124,5.0,7.0,92,0.00,,,0.00,meteohub,2013-02-05 12:00:00,
2013-02-05 07:05:00,10.4,8.6,29.98,SE,132,6.0,7.0,92,0.00,,,0.00,meteohub,2013-02-05 12:05:00,
2013-02-05 07:10:00,10.6,8.8,29.97,ESE,119,6.0,7.0,92,0.00,,,0.00,meteohub,2013-02-05 12:10:00,
2013-02-05 07:15:00,10.6,8.8,29.97,ESE,113,8.0,8.0,92,0.00,,,0.00,meteohub,2013-02-05 12:15:00,
2013-02-05 07:20:00,10.4,8.6,29.97,ESE,119,6.0,6.0,92,0.00,,,0.00,meteohub,2013-02-05 12:20:00,
2013-02-05 07:25:00,10.4,8.6,29.98,ESE,122,6.0,8.0,92,0.00,,,0.00,meteohub,2013-02-05 12:25:00,
2013-02-05 07:30:00,10.6,8.8,29.98,ESE,104,6.0,9.0,92,0.00,,,0.00,meteohub,2013-02-05 12:30:00,
2013-02-05 07:35:00,10.8,9.0,29.98,SE,129,5.0,9.0,92,0.00,,,0.00,meteohub,2013-02-05 12:35:00,
2013-02-05 07:40:00,10.9,9.1,29.99,South,190,4.0,8.0,92,0.00,,,0.00,meteohub,2013-02-05 12:40:00,
2013-02-05 07:45:00,11.1,9.3,29.98,SE,131,2.0,8.0,92,0.00,,,0.00,meteohub,2013-02-05 12:45:00,
2013-02-05 07:50:00,11.5,9.7,29.98,SE,131,2.0,7.0,92,0.00,,,0.00,meteohub,2013-02-05 12:50:00,
2013-02-05 07:55:00,11.7,9.9,29.98,ESE,119,3.0,7.0,92,0.00,,,0.00,meteohub,2013-02-05 12:55:00,
2013-02-05 08:00:00,11.8,10.2,29.98,SSE,163,3.0,6.0,93,0.00,,,0.00,meteohub,2013-02-05 13:00:00,
2013-02-05 08:05:00,12.2,10.6,29.98,South,169,4.0,6.0,93,0.00,,,0.00,meteohub,2013-02-05 13:05:00,
2013-02-05 08:10:00,12.4,10.6,29.98,South,176,6.0,6.0,92,0.00,,,0.00,meteohub,2013-02-05 13:10:00,
2013-02-05 08:15:00,12.4,10.6,29.98,SSE,158,5.0,7.0,92,0.00,,,0.00,meteohub,2013-02-05 13:15:00,
2013-02-05 08:20:00,12.6,10.9,29.98,SE,143,7.0,7.0,93,0.00,,,0.00,meteohub,2013-02-05 13:20:00,
2013-02-05 08:25:00,12.9,11.3,29.97,SSE,152,4.0,8.0,93,0.00,,,0.00,meteohub,2013-02-05 13:25:00,
2013-02-05 08:30:00,13.3,11.7,29.97,ESE,116,6.0,8.0,93,0.00,,,0.00,meteohub,2013-02-05 13:30:00,
2013-02-05 08:36:00,13.5,11.7,29.96,SSE,152,10.0,10.0,92,0.00,,,0.00,meteohub,2013-02-05 13:36:00,
2013-02-05 08:41:00,13.5,11.7,29.96,SE,143,7.0,8.0,92,0.00,,,0.00,meteohub,2013-02-05 13:41:00,
2013-02-05 08:46:00,13.6,11.8,29.96,SE,124,7.0,12.0,92,0.00,,,0.00,meteohub,2013-02-05 13:46:00,
2013-02-05 08:51:00,14.0,12.4,29.96,SE,134,5.0,12.0,93,0.00,,,0.00,meteohub,2013-02-05 13:51:00,
2013-02-05 08:56:00,14.4,12.7,29.96,SSW,205,4.0,12.0,93,0.00,,,0.00,meteohub,2013-02-05 13:56:00,
2013-02-05 09:01:00,14.5,12.9,29.96,SSE,166,8.0,12.0,93,0.00,,,0.00,meteohub,2013-02-05 14:01:00,
2013-02-05 09:06:00,15.1,13.5,29.96,SSE,160,5.0,11.0,93,0.00,,,0.00,meteohub,2013-02-05 14:06:00,
2013-02-05 09:11:00,15.3,13.3,29.96,South,169,9.0,11.0,92,0.00,,,0.00,meteohub,2013-02-05 14:11:00,
2013-02-05 09:16:00,15.6,13.6,29.96,South,188,7.0,12.0,92,0.00,,,0.00,meteohub,2013-02-05 14:16:00,
2013-02-05 09:21:00,16.0,14.0,29.95,SSW,203,10.0,12.0,92,0.00,,,0.00,meteohub,2013-02-05 14:21:00,
2013-02-05 09:26:00,16.3,14.2,29.95,SSE,166,7.0,14.0,91,0.00,,,0.00,meteohub,2013-02-05 14:26:00,
2013-02-05 09:31:00,16.7,14.5,29.95,SSW,196,10.0,14.0,91,0.00,,,0.00,meteohub,2013-02-05 14:31:00,
2013-02-05 09:36:00,16.9,14.5,29.95,South,184,10.0,13.0,90,0.00,,,0.00,meteohub,2013-02-05 14:36:00,
2013-02-05 09:41:00,17.2,14.5,29.95,South,174,8.0,13.0,89,0.00,,,0.00,meteohub,2013-02-05 14:41:00,
2013-02-05 09:46:00,17.4,14.7,29.94,South,186,11.0,13.0,89,0.00,,,0.00,meteohub,2013-02-05 14:46:00,
2013-02-05 09:51:00,17.8,14.9,29.94,SSE,158,7.0,14.0,88,0.00,,,0.00,meteohub,2013-02-05 14:51:00,
2013-02-05 09:56:00,18.0,15.1,29.93,South,180,8.0,14.0,88,0.00,,,0.00,meteohub,2013-02-05 14:56:00,
2013-02-05 10:01:00,18.3,15.4,29.93,South,188,7.0,16.0,88,0.00,,,0.00,meteohub,2013-02-05 15:01:00,
2013-02-05 10:06:00,18.9,15.6,29.93,South,184,12.0,17.0,87,0.00,,,0.00,meteohub,2013-02-05 15:06:00,
2013-02-05 10:12:00,19.0,15.8,29.92,SSE,155,13.0,17.0,87,0.00,,,0.00,meteohub,2013-02-05 15:12:00,
2013-02-05 10:17:00,19.6,16.5,29.92,SSW,209,13.0,17.0,88,0.00,,,0.00,meteohub,2013-02-05 15:17:00,
2013-02-05 10:22:00,19.8,16.5,29.92,SSE,167,9.0,16.0,87,0.00,,,0.00,meteohub,2013-02-05 15:22:00,
2013-02-05 10:27:00,20.1,17.1,29.92,SW,219,8.0,15.0,88,0.00,,,0.00,meteohub,2013-02-05 15:27:00,
2013-02-05 10:32:00,20.5,17.2,29.92,SW,226,13.0,14.0,87,0.00,,,0.00,meteohub,2013-02-05 15:32:00,
2013-02-05 10:37:00,20.7,17.4,29.93,South,186,10.0,14.0,87,0.00,,,0.00,meteohub,2013-02-05 15:37:00,
2013-02-05 10:42:00,20.8,17.8,29.93,SSW,205,6.0,14.0,88,0.00,,,0.00,meteohub,2013-02-05 15:42:00,
2013-02-05 10:47:00,21.0,17.8,29.93,SSW,201,11.0,14.0,87,0.00,,,0.00,meteohub,2013-02-05 15:47:00,
2013-02-05 10:52:00,21.2,18.0,29.92,South,176,8.0,14.0,87,0.00,,,0.00,meteohub,2013-02-05 15:52:00,
2013-02-05 10:57:00,21.4,18.1,29.92,South,183,9.0,14.0,87,0.00,,,0.00,meteohub,2013-02-05 15:57:00,
2013-02-05 11:02:00,21.6,18.3,29.93,SSW,204,7.0,14.0,87,0.00,,,0.00,meteohub,2013-02-05 16:02:00,
2013-02-05 11:07:00,21.6,18.5,29.93,SSW,205,7.0,14.0,88,0.00,,,0.00,meteohub,2013-02-05 16:07:00,
2013-02-05 11:12:00,21.9,18.9,29.93,SSW,203,8.0,12.0,88,0.00,,,0.00,meteohub,2013-02-05 16:12:00,
2013-02-05 11:17:00,22.3,19.2,29.93,SSW,197,9.0,15.0,88,0.00,,,0.00,meteohub,2013-02-05 16:17:00,
2013-02-05 11:22:00,22.5,19.4,29.92,SSW,200,8.0,15.0,88,0.00,,,0.00,meteohub,2013-02-05 16:22:00,
2013-02-05 11:27:00,22.6,19.6,29.92,SW,224,15.0,15.0,88,0.00,,,0.00,meteohub,2013-02-05 16:27:00,
2013-02-05 11:32:00,22.8,19.8,29.91,SSW,201,7.0,16.0,88,0.00,,,0.00,meteohub,2013-02-05 16:32:00,
2013-02-05 11:37:00,23.2,20.1,29.91,SSW,208,13.0,16.0,88,0.00,,,0.00,meteohub,2013-02-05 16:37:00,
2013-02-05 11:43:00,23.5,20.5,29.91,SW,226,14.0,16.0,88,0.00,,,0.00,meteohub,2013-02-05 16:43:00,
2013-02-05 11:48:00,23.7,20.7,29.89,South,186,13.0,16.0,88,0.00,,,0.00,meteohub,2013-02-05 16:48:00,
2013-02-05 11:53:00,24.1,21.0,29.89,SSW,208,13.0,18.0,88,0.00,,,0.00,meteohub,2013-02-05 16:53:00,
2013-02-05 11:58:00,24.3,21.2,29.89,SSW,203,14.0,18.0,88,0.00,,,0.00,meteohub,2013-02-05 16:58:00,
2013-02-05 12:03:00,24.4,21.4,29.90,SSW,195,8.0,18.0,88,0.00,,,0.00,meteohub,2013-02-05 17:03:00,
2013-02-05 12:08:00,24.6,21.4,29.89,SW,214,14.0,18.0,87,0.00,,,0.00,meteohub,2013-02-05 17:08:00,
2013-02-05 12:13:00,24.6,21.4,29.89,SSW,203,9.0,20.0,87,0.00,,,0.00,meteohub,2013-02-05 17:13:00,
2013-02-05 12:18:00,25.0,21.7,29.89,SW,214,13.0,20.0,87,0.00,,,0.00,meteohub,2013-02-05 17:18:00,
2013-02-05 12:23:00,25.2,21.9,29.88,SSW,205,11.0,20.0,87,0.00,,,0.00,meteohub,2013-02-05 17:23:00,
2013-02-05 12:28:00,25.5,22.3,29.88,SSW,204,10.0,20.0,87,0.00,,,0.00,meteohub,2013-02-05 17:28:00,
2013-02-05 12:33:00,25.9,22.3,29.88,SW,217,13.0,20.0,86,0.00,,,0.00,meteohub,2013-02-05 17:33:00,
2013-02-05 12:38:00,26.1,22.5,29.88,South,186,10.0,16.0,86,0.00,,,0.00,meteohub,2013-02-05 17:38:00,
2013-02-05 12:43:00,26.1,22.5,29.88,SW,231,12.0,16.0,86,0.00,,,0.00,meteohub,2013-02-05 17:43:00,
2013-02-05 12:48:00,26.2,22.6,29.88,South,191,11.0,17.0,86,0.00,,,0.00,meteohub,2013-02-05 17:48:00,
2013-02-05 12:53:00,26.4,22.8,29.87,South,186,8.0,17.0,86,0.00,,,0.00,meteohub,2013-02-05 17:53:00,
2013-02-05 12:59:00,26.6,23.0,29.87,SSW,205,11.0,16.0,86,0.00,,,0.00,meteohub,2013-02-05 17:59:00,
2013-02-05 13:04:00,27.0,23.4,29.87,SSW,206,8.0,16.0,86,0.00,,,0.00,meteohub,2013-02-05 18:04:00,
2013-02-05 13:09:00,27.1,23.2,29.87,SSE,163,6.0,16.0,85,0.00,,,0.00,meteohub,2013-02-05 18:09:00,
2013-02-05 13:14:00,27.3,23.4,29.87,SW,215,10.0,18.0,85,0.00,,,0.00,meteohub,2013-02-05 18:14:00,
2013-02-05 13:19:00,27.3,23.4,29.87,South,177,4.0,18.0,85,0.00,,,0.00,meteohub,2013-02-05 18:19:00,
2013-02-05 13:24:00,27.3,23.4,29.87,West,281,11.0,17.0,85,0.00,,,0.00,meteohub,2013-02-05 18:24:00,
2013-02-05 13:29:00,27.3,23.4,29.86,SW,224,13.0,17.0,85,0.00,,,0.00,meteohub,2013-02-05 18:29:00,
2013-02-05 13:34:00,27.3,23.4,29.86,SSW,213,8.0,16.0,85,0.00,,,0.00,meteohub,2013-02-05 18:34:00,
2013-02-05 13:39:00,27.3,23.7,29.86,SW,224,8.0,16.0,86,0.00,,,0.00,meteohub,2013-02-05 18:39:00,
2013-02-05 13:44:00,27.5,23.5,29.86,SW,221,6.0,16.0,85,0.00,,,0.00,meteohub,2013-02-05 18:44:00,
2013-02-05 13:49:00,27.7,23.7,29.86,SW,231,4.0,14.0,85,0.00,,,0.00,meteohub,2013-02-05 18:49:00,
2013-02-05 13:54:00,28.0,24.1,29.86,SW,215,12.0,13.0,85,0.00,,,0.00,meteohub,2013-02-05 18:54:00,
2013-02-05 13:59:00,28.2,24.1,29.86,SW,232,9.0,14.0,84,0.00,,,0.00,meteohub,2013-02-05 18:59:00,
2013-02-05 14:04:00,28.4,24.3,29.86,WSW,242,5.0,15.0,84,0.00,,,0.00,meteohub,2013-02-05 19:04:00,
2013-02-05 14:09:00,28.4,24.4,29.86,SW,223,5.0,15.0,85,0.00,,,0.00,meteohub,2013-02-05 19:09:00,
2013-02-05 14:14:00,28.4,24.8,29.86,SSW,208,5.0,14.0,86,0.00,,,0.00,meteohub,2013-02-05 19:14:00,
2013-02-05 14:19:00,28.2,24.8,29.85,WSW,255,9.0,13.0,87,0.00,,,0.00,meteohub,2013-02-05 19:19:00,
2013-02-05 14:24:00,28.2,25.2,29.85,SSW,212,7.0,13.0,88,0.00,,,0.00,meteohub,2013-02-05 19:24:00,
2013-02-05 14:29:00,28.6,25.7,29.85,South,183,3.0,13.0,89,0.00,,,0.00,meteohub,2013-02-05 19:29:00,
2013-02-05 14:34:00,28.6,25.7,29.85,SW,218,8.0,12.0,89,0.00,,,0.00,meteohub,2013-02-05 19:34:00,
2013-02-05 14:39:00,28.6,25.7,29.85,SW,228,10.0,12.0,89,0.00,,,0.00,meteohub,2013-02-05 19:39:00,
2013-02-05 14:44:00,28.2,25.3,29.85,SW,226,8.0,14.0,89,0.00,,,0.00,meteohub,2013-02-05 19:44:00,
2013-02-05 14:49:00,28.2,25.7,29.85,SW,236,5.0,15.0,90,0.00,,,0.00,meteohub,2013-02-05 19:49:00,
2013-02-05 14:54:00,28.4,26.1,29.85,WSW,245,8.0,15.0,91,0.00,,,0.00,meteohub,2013-02-05 19:54:00,
2013-02-05 14:59:00,28.4,26.1,29.85,SW,233,8.0,15.0,91,0.00,,,0.00,meteohub,2013-02-05 19:59:00,
2013-02-05 15:04:00,28.4,26.1,29.85,SW,232,9.0,14.0,91,0.00,,,0.00,meteohub,2013-02-05 20:04:00,
2013-02-05 15:10:00,28.4,26.4,29.85,SW,233,6.0,13.0,92,0.00,,,0.00,meteohub,2013-02-05 20:10:00,
2013-02-05 15:15:00,28.6,26.8,29.85,WSW,245,7.0,13.0,93,0.00,,,0.00,meteohub,2013-02-05 20:15:00,
2013-02-05 15:20:00,28.6,26.8,29.85,SW,231,9.0,13.0,93,0.00,,,0.00,meteohub,2013-02-05 20:20:00,
2013-02-05 15:25:00,28.6,26.8,29.85,WSW,245,6.0,13.0,93,0.00,,,0.00,meteohub,2013-02-05 20:25:00,
2013-02-05 15:30:00,28.6,26.8,29.85,WSW,250,6.0,13.0,93,0.00,,,0.00,meteohub,2013-02-05 20:30:00,
2013-02-05 15:35:00,28.6,26.8,29.85,SW,233,5.0,12.0,93,0.00,,,0.00,meteohub,2013-02-05 20:35:00,
2013-02-05 15:40:00,28.6,26.8,29.86,WSW,242,5.0,12.0,93,0.00,,,0.00,meteohub,2013-02-05 20:40:00,
2013-02-05 15:45:00,28.6,26.8,29.86,West,259,5.0,10.0,93,0.00,,,0.00,meteohub,2013-02-05 20:45:00,
2013-02-05 15:50:00,28.6,27.1,29.86,SW,231,7.0,10.0,94,0.00,,,0.00,meteohub,2013-02-05 20:50:00,
2013-02-05 15:55:00,28.6,27.1,29.86,WSW,251,7.0,10.0,94,0.00,,,0.00,meteohub,2013-02-05 20:55:00,
2013-02-05 16:00:00,28.6,27.1,29.86,West,262,7.0,9.0,94,0.00,,,0.00,meteohub,2013-02-05 21:00:00,
2013-02-05 16:05:00,28.4,27.0,29.86,WSW,250,8.0,12.0,94,0.00,,,0.00,meteohub,2013-02-05 21:05:00,
2013-02-05 16:10:00,28.4,27.0,29.86,WSW,256,7.0,13.0,94,0.00,,,0.00,meteohub,2013-02-05 21:10:00,
2013-02-05 16:15:00,28.4,27.0,29.86,West,264,8.0,13.0,94,0.00,,,0.00,meteohub,2013-02-05 21:15:00,
2013-02-05 16:20:00,28.6,27.1,29.86,West,277,7.0,13.0,94,0.00,,,0.00,meteohub,2013-02-05 21:20:00,
2013-02-05 16:25:00,28.6,27.1,29.86,West,270,8.0,14.0,94,0.00,,,0.00,meteohub,2013-02-05 21:25:00,
2013-02-05 16:30:00,28.8,27.0,29.87,West,269,8.0,14.0,93,0.00,,,0.00,meteohub,2013-02-05 21:30:00,
2013-02-05 16:35:00,28.8,26.8,29.87,West,281,12.0,14.0,92,0.00,,,0.00,meteohub,2013-02-05 21:35:00,
2013-02-05 16:40:00,28.8,26.8,29.87,WNW,292,8.0,16.0,92,0.00,,,0.00,meteohub,2013-02-05 21:40:00,
2013-02-05 16:45:00,28.8,26.8,29.87,West,266,10.0,16.0,92,0.00,,,0.00,meteohub,2013-02-05 21:45:00,
2013-02-05 16:50:00,28.8,26.8,29.87,West,271,6.0,16.0,92,0.00,,,0.00,meteohub,2013-02-05 21:50:00,
2013-02-05 16:55:00,28.8,26.8,29.87,West,263,7.0,17.0,92,0.00,,,0.00,meteohub,2013-02-05 21:55:00,
2013-02-05 17:01:00,28.8,26.8,29.87,WSW,253,10.0,17.0,92,0.00,,,0.00,meteohub,2013-02-05 22:01:00,
2013-02-05 17:06:00,28.8,26.8,29.87,West,269,7.0,14.0,92,0.00,,,0.00,meteohub,2013-02-05 22:06:00,
2013-02-05 17:11:00,28.8,26.8,29.88,West,270,8.0,14.0,92,0.00,,,0.00,meteohub,2013-02-05 22:11:00,
2013-02-05 17:16:00,28.8,26.8,29.88,West,271,7.0,15.0,92,0.00,,,0.00,meteohub,2013-02-05 22:16:00,
2013-02-05 17:21:00,28.8,26.8,29.88,West,273,10.0,15.0,92,0.00,,,0.00,meteohub,2013-02-05 22:21:00,
2013-02-05 17:26:00,28.8,26.8,29.88,West,264,9.0,15.0,92,0.00,,,0.00,meteohub,2013-02-05 22:26:00,
2013-02-05 17:31:00,28.8,26.8,29.88,West,281,8.0,14.0,92,0.00,,,0.00,meteohub,2013-02-05 22:31:00,
2013-02-05 17:36:00,28.8,26.8,29.88,WNW,293,7.0,13.0,92,0.00,,,0.00,meteohub,2013-02-05 22:36:00,
2013-02-05 17:41:00,28.8,26.8,29.88,WNW,287,10.0,13.0,92,0.00,,,0.00,meteohub,2013-02-05 22:41:00,
2013-02-05 17:46:00,28.8,26.4,29.88,West,280,11.0,13.0,91,0.00,,,0.00,meteohub,2013-02-05 22:46:00,
2013-02-05 17:51:00,28.8,26.4,29.88,West,278,6.0,13.0,91,0.00,,,0.00,meteohub,2013-02-05 22:51:00,
2013-02-05 17:56:00,28.8,26.4,29.88,WNW,290,6.0,13.0,91,0.00,,,0.00,meteohub,2013-02-05 22:56:00,
2013-02-05 18:01:00,28.8,26.4,29.89,West,269,7.0,13.0,91,0.00,,,0.00,meteohub,2013-02-05 23:01:00,
2013-02-05 18:06:00,28.6,26.2,29.90,WNW,297,9.0,13.0,91,0.00,,,0.00,meteohub,2013-02-05 23:06:00,
2013-02-05 18:11:00,28.6,26.6,29.90,West,276,9.0,13.0,92,0.00,,,0.00,meteohub,2013-02-05 23:11:00,
2013-02-05 18:16:00,28.6,26.6,29.90,WNW,295,7.0,13.0,92,0.00,,,0.00,meteohub,2013-02-05 23:16:00,
2013-02-05 18:21:00,28.4,26.6,29.90,WNW,293,8.0,12.0,93,0.00,,,0.00,meteohub,2013-02-05 23:21:00,
2013-02-05 18:26:00,28.4,26.6,29.90,WNW,289,10.0,12.0,93,0.00,,,0.00,meteohub,2013-02-05 23:26:00,
2013-02-05 18:32:00,28.2,26.8,29.90,WNW,284,9.0,12.0,94,0.00,,,0.00,meteohub,2013-02-05 23:32:00,
2013-02-05 18:37:00,28.2,26.8,29.91,WNW,295,6.0,14.0,94,0.00,,,0.00,meteohub,2013-02-05 23:37:00,
2013-02-05 18:42:00,28.2,26.8,29.91,WNW,290,8.0,14.0,94,0.00,,,0.00,meteohub,2013-02-05 23:42:00,
2013-02-05 18:47:00,28.0,26.8,29.91,West,279,7.0,12.0,95,0.00,,,0.00,meteohub,2013-02-05 23:47:00,
2013-02-05 18:52:00,28.0,26.8,29.91,WNW,287,7.0,10.0,95,0.00,,,0.00,meteohub,2013-02-05 23:52:00,
2013-02-05 18:57:00,28.0,26.8,29.91,West,278,6.0,10.0,95,0.00,,,0.00,meteohub,2013-02-05 23:57:00,
2013-02-05 19:02:00,28.0,26.8,29.92,West,278,9.0,12.0,95,0.00,,,0.00,meteohub,2013-02-06 00:02:00,
2013-02-05 19:07:00,27.9,26.6,29.92,WNW,295,8.0,13.0,95,0.00,,,0.00,meteohub,2013-02-06 00:07:00,
2013-02-05 19:12:00,27.9,26.6,29.92,WNW,287,6.0,13.0,95,0.00,,,0.00,meteohub,2013-02-06 00:12:00,
2013-02-05 19:17:00,27.9,26.6,29.93,NW,309,8.0,13.0,95,0.00,,,0.00,meteohub,2013-02-06 00:17:00,
2013-02-05 19:22:00,27.7,26.4,29.93,WNW,292,6.0,13.0,95,0.00,,,0.00,meteohub,2013-02-06 00:22:00,
2013-02-05 19:27:00,27.7,26.4,29.93,WNW,293,10.0,13.0,95,0.00,,,0.00,meteohub,2013-02-06 00:27:00,
2013-02-05 19:32:00,27.7,26.4,29.94,WNW,286,5.0,13.0,95,0.00,,,0.00,meteohub,2013-02-06 00:32:00,
2013-02-05 19:37:00,27.7,26.4,29.94,NW,311,8.0,13.0,95,0.00,,,0.00,meteohub,2013-02-06 00:37:00,
2013-02-05 19:42:00,27.5,26.2,29.94,WNW,286,6.0,11.0,95,0.00,,,0.00,meteohub,2013-02-06 00:42:00,
2013-02-05 19:48:00,27.5,26.2,29.94,WNW,301,7.0,10.0,95,0.00,,,0.00,meteohub,2013-02-06 00:48:00,
2013-02-05 19:52:00,27.3,26.1,29.95,NW,309,5.0,10.0,95,0.00,,,0.00,meteohub,2013-02-06 00:52:00,
2013-02-05 19:57:00,27.3,25.9,29.95,NW,324,9.0,12.0,94,0.00,,,0.00,meteohub,2013-02-06 00:57:00,
2013-02-05 20:03:00,27.3,25.9,29.95,WNW,295,6.0,12.0,94,0.00,,,0.00,meteohub,2013-02-06 01:03:00,
2013-02-05 20:08:00,27.3,25.9,29.96,NW,304,5.0,12.0,94,0.00,,,0.00,meteohub,2013-02-06 01:08:00,
2013-02-05 20:13:00,27.3,25.9,29.96,WNW,298,7.0,12.0,94,0.00,,,0.00,meteohub,2013-02-06 01:13:00,
2013-02-05 20:18:00,27.3,25.9,29.96,NW,316,4.0,11.0,94,0.00,,,0.00,meteohub,2013-02-06 01:18:00,
2013-02-05 20:23:00,27.3,25.9,29.96,NW,318,8.0,12.0,94,0.00,,,0.00,meteohub,2013-02-06 01:23:00,
2013-02-05 20:28:00,27.1,25.7,29.97,WNW,300,5.0,12.0,94,0.00,,,0.00,meteohub,2013-02-06 01:28:00,
2013-02-05 20:33:00,27.1,25.7,29.97,WNW,295,4.0,12.0,94,0.00,,,0.00,meteohub,2013-02-06 01:33:00,
2013-02-05 20:38:00,27.1,25.7,29.97,NW,320,6.0,11.0,94,0.00,,,0.00,meteohub,2013-02-06 01:38:00,
2013-02-05 20:43:00,27.1,25.7,29.98,WNW,295,5.0,10.0,94,0.00,,,0.00,meteohub,2013-02-06 01:43:00,
2013-02-05 20:48:00,27.1,25.7,29.98,WNW,295,5.0,9.0,94,0.00,,,0.00,meteohub,2013-02-06 01:48:00,
2013-02-05 20:53:00,27.1,25.9,29.98,NW,309,6.0,9.0,95,0.00,,,0.00,meteohub,2013-02-06 01:53:00,
2013-02-05 20:58:00,27.1,25.9,29.99,NW,307,4.0,9.0,95,0.00,,,0.00,meteohub,2013-02-06 01:58:00,
2013-02-05 21:03:00,27.0,25.5,29.99,NW,308,8.0,9.0,94,0.00,,,0.00,meteohub,2013-02-06 02:03:00,
2013-02-05 21:08:00,27.0,25.5,29.99,NW,311,6.0,12.0,94,0.00,,,0.00,meteohub,2013-02-06 02:08:00,
2013-02-05 21:13:00,27.0,25.5,29.99,NW,316,5.0,12.0,94,0.00,,,0.00,meteohub,2013-02-06 02:13:00,
2013-02-05 21:18:00,27.0,25.5,30.00,NW,313,6.0,13.0,94,0.00,,,0.00,meteohub,2013-02-06 02:18:00,
2013-02-05 21:24:00,26.8,25.3,30.00,NNW,333,5.0,13.0,94,0.00,,,0.00,meteohub,2013-02-06 02:24:00,
2013-02-05 21:29:00,26.8,25.3,30.00,NW,326,6.0,13.0,94,0.00,,,0.00,meteohub,2013-02-06 02:29:00,
2013-02-05 21:34:00,26.8,25.3,30.00,NW,318,8.0,13.0,94,0.00,,,0.00,meteohub,2013-02-06 02:34:00,
2013-02-05 21:39:00,26.8,25.3,30.01,NW,323,5.0,11.0,94,0.00,,,0.00,meteohub,2013-02-06 02:39:00,
2013-02-05 21:44:00,26.6,25.2,30.01,NNW,342,4.0,11.0,94,0.00,,,0.00,meteohub,2013-02-06 02:44:00,
2013-02-05 21:49:00,26.6,25.2,30.01,NW,326,7.0,11.0,94,0.00,,,0.00,meteohub,2013-02-06 02:49:00,
2013-02-05 21:54:00,26.4,24.6,30.02,WNW,295,8.0,10.0,93,0.00,,,0.00,meteohub,2013-02-06 02:54:00,
2013-02-05 21:59:00,26.2,24.3,30.02,NW,313,7.0,10.0,92,0.00,,,0.00,meteohub,2013-02-06 02:59:00,
2013-02-05 22:04:00,26.2,23.9,30.03,NW,304,11.0,16.0,91,0.00,,,0.00,meteohub,2013-02-06 03:04:00,
2013-02-05 22:09:00,26.1,23.7,30.03,NW,326,10.0,16.0,91,0.00,,,0.00,meteohub,2013-02-06 03:09:00,
2013-02-05 22:14:00,26.1,23.7,30.03,NW,316,8.0,13.0,91,0.00,,,0.00,meteohub,2013-02-06 03:14:00,
2013-02-05 22:19:00,25.9,23.5,30.03,North,349,6.0,13.0,91,0.00,,,0.00,meteohub,2013-02-06 03:19:00,
2013-02-05 22:24:00,25.9,23.5,30.04,WNW,295,5.0,15.0,91,0.00,,,0.00,meteohub,2013-02-06 03:24:00,
2013-02-05 22:29:00,25.9,23.5,30.04,WNW,297,4.0,15.0,91,0.00,,,0.00,meteohub,2013-02-06 03:29:00,
2013-02-05 22:34:00,25.7,23.2,30.05,NNE,13,3.0,10.0,90,0.00,,,0.00,meteohub,2013-02-06 03:34:00,
2013-02-05 22:39:00,25.5,22.8,30.05,North,354,8.0,15.0,89,0.00,,,0.00,meteohub,2013-02-06 03:39:00,
2013-02-05 22:44:00,25.3,22.3,30.05,NNW,328,5.0,15.0,88,0.00,,,0.00,meteohub,2013-02-06 03:44:00,
2013-02-05 22:49:00,25.3,22.1,30.05,NNW,340,9.0,15.0,87,0.00,,,0.00,meteohub,2013-02-06 03:49:00,
2013-02-05 22:54:00,25.2,21.6,30.06,North,4,4.0,14.0,86,0.00,,,0.00,meteohub,2013-02-06 03:54:00,
2013-02-05 22:59:00,25.2,21.4,30.05,NNE,20,4.0,11.0,85,0.00,,,0.00,meteohub,2013-02-06 03:59:00,
2013-02-05 23:04:00,25.0,21.2,30.06,NNW,331,5.0,12.0,85,0.00,,,0.00,meteohub,2013-02-06 04:04:00,
2013-02-05 23:09:00,25.0,21.2,30.06,North,4,3.0,12.0,85,0.00,,,0.00,meteohub,2013-02-06 04:09:00,
2013-02-05 23:14:00,25.0,20.8,30.06,North,349,6.0,12.0,84,0.00,,,0.00,meteohub,2013-02-06 04:14:00,
2013-02-05 23:19:00,25.0,20.8,30.06,NW,313,3.0,12.0,84,0.00,,,0.00,meteohub,2013-02-06 04:19:00,
2013-02-05 23:25:00,24.8,20.7,30.06,NNW,332,3.0,10.0,84,0.00,,,0.00,meteohub,2013-02-06 04:25:00,
2013-02-05 23:30:00,24.8,20.7,30.06,NNE,26,1.0,10.0,84,0.00,,,0.00,meteohub,2013-02-06 04:30:00,
2013-02-05 23:35:00,24.6,20.5,30.07,NNW,338,5.0,7.0,84,0.00,,,0.00,meteohub,2013-02-06 04:35:00,
2013-02-05 23:40:00,24.6,20.5,30.07,NNW,344,6.0,8.0,84,0.00,,,0.00,meteohub,2013-02-06 04:40:00,
2013-02-05 23:45:00,24.6,20.5,30.08,NW,317,4.0,9.0,84,0.00,,,0.00,meteohub,2013-02-06 04:45:00,
2013-02-05 23:50:00,24.6,20.5,30.08,NW,308,7.0,12.0,84,0.00,,,0.00,meteohub,2013-02-06 04:50:00,
2013-02-05 23:55:00,24.4,20.3,30.08,NW,313,7.0,12.0,84,0.00,,,0.00,meteohub,2013-02-06 04:55:00,